Forside
METAR-TAF:

METAR-TAF

Lufthavne :

Tri-County Regional Airport

Lone Rock, Wisconsin, USA

Breddekreds: 43-12-43N, længdekreds: 090-10-53W, højde: 219 m

Aktuelle vejr

Denne rapport blev lavet for 38 minutter siden, kl. 17:56 UTC
Vind 4 kt fra vest
Temperatur 7°C
Fugtighed 49%
Tryk 1013 hPa
Sigt: 16.1 km
skyfri

METAR: KLNR 231756Z AUTO 28004KT 10SM CLR 07/M03 A2990 RMK AO2 SLP123 T00721028 10072 21061 58008

Tid: 12:34 (18:34 UTC)


TAF: fraværende

Vejrobservationer og prognoser fra mere end 4000 lufthavne (METAR og TAF).

De gule og røde prikker repræsenterer de meteorologiske stationer.

Flyt musen over at se navnet på stationen.

Så klik over at se vejr observationer og prognoser.

At skifte det kort: Klik på de grønne knapper med et sort kors for at zoome ind; på den grønne knap med en bindestreg for at zoome ud; eller på de grønne pile for tilstødende kort.


METAR-TAF: